createdAt,value
2022-12-18T00:01:16.125Z,102120.38
2022-12-18T00:03:43.009Z,102128.25
2022-12-18T00:06:10.209Z,102135.09
2022-12-18T00:08:36.954Z,102143.81
2022-12-18T00:11:08.749Z,102152.84
2022-12-18T00:13:36.442Z,102159.81
2022-12-18T00:16:05.387Z,102168.97
2022-12-18T00:18:32.351Z,102171.44
2022-12-18T00:21:01.703Z,102167.13
2022-12-18T00:23:29.092Z,102164.28
2022-12-18T00:25:55.698Z,102163.66
2022-12-18T00:28:22.107Z,102161.19
2022-12-18T00:30:52.248Z,102161.19
2022-12-18T00:33:18.988Z,102161.22
2022-12-18T00:35:45.426Z,102165.50
2022-12-18T00:38:11.827Z,102155.22
2022-12-18T00:40:38.311Z,102163.91
2022-12-18T00:43:04.738Z,102169.13
2022-12-18T00:45:31.983Z,102177.81
2022-12-18T00:47:58.558Z,102177.84
2022-12-18T00:50:25.960Z,102174.34
2022-12-18T00:52:52.815Z,102173.47
2022-12-18T00:55:19.640Z,102173.44
2022-12-18T00:57:47.102Z,102174.34
2022-12-18T01:00:15.837Z,102176.94
2022-12-18T01:02:43.462Z,102186.13
2022-12-18T01:05:12.022Z,102188.88
2022-12-18T01:07:38.591Z,102190.38
2022-12-18T01:10:06.289Z,102181.84
2022-12-18T01:12:35.751Z,102192.53
2022-12-18T01:15:02.417Z,102193.44
2022-12-18T01:17:28.944Z,102185.63
2022-12-18T01:19:55.396Z,102187.38
2022-12-18T01:22:21.804Z,102195.22
2022-12-18T01:24:48.248Z,102194.31
2022-12-18T01:27:14.706Z,102197.78
2022-12-18T01:29:41.165Z,102196.03
2022-12-18T01:32:09.425Z,102200.38
2022-12-18T01:34:39.063Z,102195.22
2022-12-18T01:37:06.167Z,102197.78
2022-12-18T01:39:33.179Z,102194.31
2022-12-18T01:42:03.841Z,102189.97
2022-12-18T01:44:58.034Z,102192.59
2022-12-18T01:47:29.477Z,102190.81
2022-12-18T01:49:58.077Z,102194.09
2022-12-18T01:52:27.054Z,102198.53
2022-12-18T01:54:54.114Z,102201.13
2022-12-18T01:57:21.431Z,102199.38
2022-12-18T01:59:53.536Z,102197.72
2022-12-18T02:02:22.006Z,102205.59
2022-12-18T02:04:49.703Z,102205.59
2022-12-18T02:07:36.561Z,102202.88
2022-12-18T02:10:27.553Z,102197.28
2022-12-18T02:13:12.402Z,102196.00
2022-12-18T02:15:50.129Z,102200.81
2022-12-18T02:18:28.180Z,102207.88
2022-12-18T02:24:16.981Z,102224.47
2022-12-18T02:27:06.316Z,102228.69
2022-12-18T02:29:38.498Z,102222.41
2022-12-18T02:32:10.218Z,102216.25
2022-12-18T02:34:39.534Z,102218.59
2022-12-18T02:37:13.891Z,102214.47
2022-12-18T02:39:44.316Z,102203.44
2022-12-18T02:42:14.300Z,102207.97
2022-12-18T02:44:50.360Z,102205.34
2022-12-18T02:47:23.977Z,102215.19
2022-12-18T02:50:20.367Z,102222.72
2022-12-18T02:52:55.123Z,102222.84
2022-12-18T02:55:46.506Z,102208.97
2022-12-18T02:58:21.897Z,102212.41
2022-12-18T03:01:07.097Z,102210.69
2022-12-18T03:03:53.832Z,102216.72
2022-12-18T03:06:32.870Z,102218.44
2022-12-18T03:09:06.900Z,102214.97
2022-12-18T03:11:56.501Z,102213.19
2022-12-18T03:14:25.068Z,102221.88
2022-12-18T03:16:55.651Z,102220.97
2022-12-18T03:19:26.908Z,102226.94
2022-12-18T03:21:59.596Z,102223.47
2022-12-18T03:24:28.794Z,102235.63
2022-12-18T03:27:00.992Z,102229.63
2022-12-18T03:29:36.821Z,102234.81
2022-12-18T03:32:13.174Z,102233.09
2022-12-18T03:34:43.225Z,102223.59
2022-12-18T03:37:13.011Z,102224.44
2022-12-18T03:39:41.794Z,102233.34
2022-12-18T03:42:26.731Z,102247.16
2022-12-18T03:45:13.380Z,102241.22
2022-12-18T03:48:15.316Z,102238.41
2022-12-18T03:50:54.917Z,102237.38
2022-12-18T03:53:39.243Z,102238.69
2022-12-18T03:56:07.500Z,102235.59
2022-12-18T03:58:41.041Z,102239.56
2022-12-18T04:01:18.999Z,102238.09
2022-12-18T04:03:50.184Z,102255.47
2022-12-18T04:06:19.324Z,102257.22
2022-12-18T04:08:47.560Z,102253.50
2022-12-18T04:11:17.592Z,102258.06
2022-12-18T04:13:46.373Z,102253.78
2022-12-18T04:16:20.791Z,102255.47
2022-12-18T04:18:51.492Z,102256.44
2022-12-18T04:21:20.313Z,102250.22
2022-12-18T04:23:48.141Z,102250.25
2022-12-18T04:26:14.757Z,102248.59
2022-12-18T04:28:57.416Z,102258.19
2022-12-18T04:31:24.095Z,102257.97
2022-12-18T04:33:50.631Z,102258.09
2022-12-18T04:36:17.557Z,102272.00
2022-12-18T04:38:45.452Z,102268.56
2022-12-18T04:41:15.364Z,102270.09
2022-12-18T04:43:43.929Z,102267.22
2022-12-18T04:46:10.593Z,102270.84
2022-12-18T04:48:37.438Z,102264.00
2022-12-18T04:51:05.142Z,102262.28
2022-12-18T04:53:31.642Z,102262.31
2022-12-18T04:56:05.973Z,102263.31
2022-12-18T04:58:32.593Z,102264.09
2022-12-18T05:00:59.125Z,102262.13
2022-12-18T05:03:25.593Z,102267.19
2022-12-18T05:05:52.765Z,102265.13
2022-12-18T05:08:19.710Z,102261.00
2022-12-18T05:10:46.583Z,102255.19
2022-12-18T05:13:13.079Z,102273.84
2022-12-18T05:15:39.647Z,102267.22
2022-12-18T05:18:06.160Z,102272.66
2022-12-18T05:20:32.850Z,102280.97
2022-12-18T05:22:59.351Z,102273.78
2022-12-18T05:25:26.006Z,102268.91
2022-12-18T05:27:52.450Z,102264.53
2022-12-18T05:30:18.943Z,102263.72
2022-12-18T05:32:45.393Z,102259.56
2022-12-18T05:35:12.330Z,102258.63
2022-12-18T05:37:42.956Z,102266.59
2022-12-18T05:40:10.784Z,102264.00
2022-12-18T05:42:37.492Z,102263.16
2022-12-18T05:45:05.063Z,102264.78
2022-12-18T05:47:31.518Z,102266.25
2022-12-18T05:49:58.067Z,102270.56
2022-12-18T05:52:24.777Z,102269.81
2022-12-18T05:54:51.209Z,102268.84
2022-12-18T05:57:17.712Z,102267.31
2022-12-18T05:59:44.432Z,102266.44
2022-12-18T06:02:10.960Z,102263.66
2022-12-18T06:04:37.549Z,102279.31
2022-12-18T06:07:03.983Z,102279.28
2022-12-18T06:09:30.724Z,102287.34
2022-12-18T06:11:57.171Z,102286.81
2022-12-18T06:14:23.640Z,102290.31
2022-12-18T06:16:52.837Z,102298.78
2022-12-18T06:19:19.290Z,102310.13
2022-12-18T06:21:46.475Z,102305.78
2022-12-18T06:24:12.954Z,102303.38
2022-12-18T06:26:39.959Z,102309.09
2022-12-18T06:29:06.534Z,102313.16
2022-12-18T06:31:33.440Z,102299.72
2022-12-18T06:34:03.178Z,102300.84
2022-12-18T06:36:30.278Z,102301.88
2022-12-18T06:38:57.447Z,102310.44
2022-12-18T06:41:24.255Z,102313.78
2022-12-18T06:43:50.799Z,102317.19
2022-12-18T06:46:17.307Z,102319.38
2022-12-18T06:48:43.858Z,102318.72
2022-12-18T06:51:10.308Z,102319.91
2022-12-18T06:53:36.980Z,102323.03
2022-12-18T06:56:09.886Z,102332.50
2022-12-18T06:58:37.923Z,102329.59
2022-12-18T07:01:07.014Z,102329.84
2022-12-18T07:03:33.550Z,102335.28
2022-12-18T07:06:00.176Z,102338.78
2022-12-18T07:08:27.030Z,102333.59
2022-12-18T07:10:56.455Z,102334.63
2022-12-18T07:13:23.465Z,102333.81
2022-12-18T07:15:49.991Z,102340.97
2022-12-18T07:18:16.484Z,102342.09
2022-12-18T07:20:42.928Z,102340.34
2022-12-18T07:23:09.432Z,102334.34
2022-12-18T07:25:36.597Z,102340.41
2022-12-18T07:28:03.930Z,102337.06
2022-12-18T07:30:30.576Z,102340.56
2022-12-18T07:32:57.022Z,102346.72
2022-12-18T07:35:25.171Z,102356.28
2022-12-18T07:37:52.355Z,102354.41
2022-12-18T07:40:18.845Z,102349.22
2022-12-18T07:42:45.275Z,102357.53
2022-12-18T07:45:11.883Z,102350.94
2022-12-18T07:47:38.462Z,102356.91
2022-12-18T07:50:06.256Z,102364.69
2022-12-18T07:52:32.723Z,102375.63
2022-12-18T07:54:59.776Z,102365.19
2022-12-18T08:00:13.280Z,102357.75
2022-12-18T08:02:39.918Z,102360.22
2022-12-18T08:05:06.658Z,102367.63
2022-12-18T08:07:33.645Z,102358.25
2022-12-18T08:10:00.146Z,102353.59
2022-12-18T08:12:26.611Z,102351.09
2022-12-18T08:14:53.243Z,102363.00
2022-12-18T08:17:20.936Z,102364.22
2022-12-18T08:19:47.399Z,102359.03
2022-12-18T08:22:13.871Z,102360.19
2022-12-18T08:24:40.300Z,102356.75
2022-12-18T08:27:28.476Z,102352.94
2022-12-18T08:29:53.163Z,102358.97
2022-12-18T08:32:19.742Z,102361.00
2022-12-18T08:34:46.259Z,102361.72
2022-12-18T08:37:12.761Z,102363.53
2022-12-18T08:39:39.210Z,102359.88
2022-12-18T08:42:24.333Z,102367.59
2022-12-18T08:44:50.783Z,102370.16
2022-12-18T08:47:17.232Z,102358.97
2022-12-18T08:49:43.682Z,102362.38
2022-12-18T08:52:10.153Z,102360.44
2022-12-18T08:54:36.614Z,102373.22
2022-12-18T08:57:03.138Z,102375.16
2022-12-18T08:59:29.735Z,102366.66
2022-12-18T09:01:56.476Z,102358.84
2022-12-18T09:04:23.618Z,102364.25
2022-12-18T09:06:50.213Z,102370.41
2022-12-18T09:09:16.693Z,102365.94
2022-12-18T09:11:43.180Z,102379.91
2022-12-18T09:14:10.850Z,102385.75
2022-12-18T09:16:37.552Z,102391.59
2022-12-18T09:19:05.752Z,102385.72
2022-12-18T09:21:37.084Z,102395.03
2022-12-18T09:24:05.236Z,102404.63
2022-12-18T09:26:36.032Z,102398.81
2022-12-18T09:29:03.856Z,102389.56
2022-12-18T09:31:30.279Z,102392.44
2022-12-18T09:33:57.675Z,102396.72
2022-12-18T09:36:24.305Z,102380.41
2022-12-18T09:38:51.429Z,102390.81
2022-12-18T09:41:57.868Z,102390.88
2022-12-18T09:44:28.038Z,102377.22
2022-12-18T09:47:02.215Z,102380.72
2022-12-18T09:49:31.941Z,102378.19
2022-12-18T09:52:10.200Z,102365.19
2022-12-18T09:54:40.879Z,102367.91
2022-12-18T09:57:07.382Z,102365.38
2022-12-18T09:59:40.617Z,102373.19
2022-12-18T10:02:22.655Z,102348.13
2022-12-18T10:05:15.167Z,102340.44
2022-12-18T10:08:16.846Z,102335.28
2022-12-18T10:10:53.196Z,102342.22
2022-12-18T10:13:31.646Z,102329.22
2022-12-18T10:16:04.036Z,102324.94
2022-12-18T10:18:45.432Z,102320.66
2022-12-18T10:21:17.747Z,102307.69
2022-12-18T10:24:03.864Z,102303.34
2022-12-18T10:26:33.680Z,102295.63
2022-12-18T10:29:05.322Z,102293.97
2022-12-18T10:31:32.176Z,102290.50
2022-12-18T10:33:58.653Z,102290.44
2022-12-18T10:36:26.250Z,102284.50
2022-12-18T10:38:52.795Z,102272.34
2022-12-18T10:41:19.983Z,102278.47
2022-12-18T10:43:49.051Z,102276.78
2022-12-18T10:46:20.642Z,102279.38
2022-12-18T10:48:55.961Z,102268.94
2022-12-18T10:51:31.542Z,102277.63
2022-12-18T10:54:04.673Z,102276.81
2022-12-18T10:56:35.814Z,102276.81
2022-12-18T10:59:08.316Z,102266.41
2022-12-18T11:01:50.597Z,102264.63
2022-12-18T11:04:21.691Z,102256.88
2022-12-18T11:07:03.822Z,102255.16
2022-12-18T11:09:38.889Z,102250.81
2022-12-18T11:12:17.676Z,102250.81
2022-12-18T11:14:48.902Z,102243.03
2022-12-18T11:17:27.119Z,102238.66
2022-12-18T11:19:55.127Z,102233.44
2022-12-18T11:22:27.433Z,102230.81
2022-12-18T11:25:30.677Z,102236.00
2022-12-18T11:27:51.965Z,102238.66
2022-12-18T11:30:35.660Z,102234.28
2022-12-18T11:33:17.258Z,102238.66
2022-12-18T11:35:54.662Z,102228.22
2022-12-18T11:38:35.447Z,102226.44
2022-12-18T11:41:22.968Z,102227.28
2022-12-18T11:43:55.118Z,102227.34
2022-12-18T11:46:33.322Z,102229.06
2022-12-18T11:49:29.181Z,102239.47
2022-12-18T11:52:20.575Z,102247.22
2022-12-18T11:54:54.260Z,102237.78
2022-12-18T11:57:50.255Z,102230.69
2022-12-18T12:00:19.814Z,102235.91
2022-12-18T12:03:14.196Z,102238.56
2022-12-18T12:05:59.783Z,102245.56
2022-12-18T12:08:59.357Z,102254.22
2022-12-18T12:11:50.217Z,102247.31
2022-12-18T12:14:25.929Z,102248.09
2022-12-18T12:16:59.740Z,102262.94
2022-12-18T12:19:44.710Z,102259.47
2022-12-18T12:22:40.665Z,102266.44
2022-12-18T12:25:29.812Z,102265.53
2022-12-18T12:28:08.460Z,102267.25
2022-12-18T12:31:03.847Z,102282.03
2022-12-18T12:33:48.567Z,102284.66
2022-12-18T12:36:32.034Z,102283.78
2022-12-18T12:39:02.468Z,102274.22
2022-12-18T12:41:53.098Z,102274.22
2022-12-18T12:44:35.306Z,102264.69
2022-12-18T12:47:16.454Z,102254.22
2022-12-18T12:49:48.471Z,102260.31
2022-12-18T12:52:25.673Z,102258.56
2022-12-18T12:54:52.760Z,102256.00
2022-12-18T12:57:35.365Z,102256.03
2022-12-18T13:00:13.800Z,102248.16
2022-12-18T13:03:05.714Z,102248.16
2022-12-18T13:05:41.405Z,102245.56
2022-12-18T13:08:11.088Z,102236.84
2022-12-18T13:10:40.340Z,102232.47
2022-12-18T13:13:13.318Z,102230.75
2022-12-18T13:15:43.998Z,102234.28
2022-12-18T13:18:16.126Z,102244.69
2022-12-18T13:21:03.776Z,102246.44
2022-12-18T13:23:42.402Z,102241.19
2022-12-18T13:26:09.265Z,102238.59
2022-12-18T13:28:47.922Z,102243.81
2022-12-18T13:31:49.541Z,102244.69
2022-12-18T13:34:27.664Z,102246.44
2022-12-18T13:36:58.225Z,102243.81
2022-12-18T13:39:34.779Z,102245.56
2022-12-18T13:42:08.430Z,102242.09
2022-12-18T13:44:40.682Z,102234.25
2022-12-18T13:47:25.751Z,102241.22
2022-12-18T13:49:52.166Z,102242.06
2022-12-18T13:52:22.478Z,102242.94
2022-12-18T13:54:56.457Z,102248.16
2022-12-18T13:57:33.874Z,102244.69
2022-12-18T14:00:17.719Z,102242.97
2022-12-18T14:02:46.529Z,102241.22
2022-12-18T14:05:35.268Z,102247.31
2022-12-18T14:08:13.642Z,102239.47
2022-12-18T14:10:48.568Z,102236.00
2022-12-18T14:13:30.324Z,102240.34
2022-12-18T14:15:57.763Z,102238.63
2022-12-18T14:18:31.554Z,102229.06
2022-12-18T14:21:00.583Z,102223.88
2022-12-18T14:23:39.504Z,102216.88
2022-12-18T14:26:28.153Z,102217.75
2022-12-18T14:28:56.360Z,102216.00
2022-12-18T14:31:26.332Z,102203.84
2022-12-18T14:33:54.041Z,102209.94
2022-12-18T14:36:25.354Z,102211.69
2022-12-18T14:38:54.791Z,102209.94
2022-12-18T14:41:22.400Z,102205.59
2022-12-18T14:43:51.618Z,102207.34
2022-12-18T14:46:35.415Z,102208.22
2022-12-18T14:49:23.053Z,102207.34
2022-12-18T14:51:51.813Z,102213.44
2022-12-18T14:54:20.755Z,102223.88
2022-12-18T14:56:50.187Z,102207.34
2022-12-18T14:59:24.196Z,102213.44
2022-12-18T15:02:01.156Z,102210.84
2022-12-18T15:04:31.956Z,102208.22
2022-12-18T15:07:20.695Z,102211.72
2022-12-18T15:10:17.098Z,102216.91
2022-12-18T15:12:49.519Z,102217.81
2022-12-18T15:15:34.713Z,102221.25
2022-12-18T15:18:03.057Z,102203.91
2022-12-18T15:20:33.547Z,102199.56
2022-12-18T15:23:00.121Z,102203.91
2022-12-18T15:25:33.328Z,102198.69
2022-12-18T15:27:59.783Z,102200.41
2022-12-18T15:30:26.884Z,102190.84
2022-12-18T15:33:13.688Z,102188.25
2022-12-18T15:35:45.244Z,102178.69
2022-12-18T15:38:13.323Z,102181.31
2022-12-18T15:40:39.818Z,102190.00
2022-12-18T15:43:24.929Z,102190.00
2022-12-18T15:45:51.396Z,102193.47
2022-12-18T15:48:24.293Z,102193.47
2022-12-18T15:50:53.430Z,102189.97
2022-12-18T15:53:20.109Z,102187.41
2022-12-18T15:56:05.062Z,102196.06
2022-12-18T15:58:31.495Z,102189.97
2022-12-18T16:01:00.023Z,102183.03
2022-12-18T16:03:26.525Z,102176.09
2022-12-18T16:05:53.233Z,102165.66
2022-12-18T16:08:21.021Z,102176.97
2022-12-18T16:10:47.607Z,102182.16
2022-12-18T16:13:20.101Z,102182.16
2022-12-18T16:15:46.672Z,102180.44
2022-12-18T16:18:13.341Z,102187.38
2022-12-18T16:20:40.462Z,102174.34
2022-12-18T16:23:07.374Z,102172.59
2022-12-18T16:25:34.264Z,102173.47
2022-12-18T16:28:00.678Z,102176.94
2022-12-18T16:30:33.098Z,102184.78
2022-12-18T16:33:05.730Z,102187.38
2022-12-18T16:35:34.401Z,102174.34
2022-12-18T16:38:00.837Z,102170.00
2022-12-18T16:40:27.330Z,102176.97
2022-12-18T16:42:54.084Z,102175.22
2022-12-18T16:45:20.711Z,102161.31
2022-12-18T16:47:47.307Z,102167.38
2022-12-18T16:50:13.866Z,102159.56
2022-12-18T16:52:40.703Z,102160.44
2022-12-18T16:55:07.894Z,102162.19
2022-12-18T16:57:34.407Z,102175.19
2022-12-18T17:00:05.259Z,102160.44
2022-12-18T17:02:32.947Z,102157.84
2022-12-18T17:04:59.677Z,102158.72
2022-12-18T17:07:26.952Z,102161.31
2022-12-18T17:09:54.315Z,102148.31
2022-12-18T17:12:21.620Z,102158.72
2022-12-18T17:14:48.448Z,102153.50
2022-12-18T17:17:23.747Z,102161.31
2022-12-18T17:19:52.269Z,102157.84
2022-12-18T17:22:19.594Z,102155.22
2022-12-18T17:24:47.156Z,102159.56
2022-12-18T17:27:13.994Z,102156.09
2022-12-18T17:29:46.891Z,102151.78
2022-12-18T17:32:14.800Z,102150.03
2022-12-18T17:34:41.372Z,102159.56
2022-12-18T17:37:08.480Z,102157.84
2022-12-18T17:39:34.980Z,102163.03
2022-12-18T17:42:01.478Z,102156.97
2022-12-18T17:44:28.023Z,102156.09
2022-12-18T17:46:54.678Z,102151.75
2022-12-18T17:49:21.665Z,102135.25
2022-12-18T17:51:48.754Z,102139.59
2022-12-18T17:54:15.233Z,102132.66
2022-12-18T17:56:41.737Z,102144.81
2022-12-18T17:59:08.379Z,102133.50
2022-12-18T18:01:38.506Z,102134.41
2022-12-18T18:04:07.750Z,102130.91
2022-12-18T18:06:34.446Z,102123.13
2022-12-18T18:09:03.932Z,102127.44
2022-12-18T18:11:49.039Z,102117.03
2022-12-18T18:14:20.784Z,102117.00
2022-12-18T18:16:49.654Z,102123.09
2022-12-18T18:19:21.770Z,102106.56
2022-12-18T18:21:50.126Z,102118.75
2022-12-18T18:24:20.395Z,102110.94
2022-12-18T18:26:47.133Z,102110.94
2022-12-18T18:29:23.676Z,102110.91
2022-12-18T18:31:52.595Z,102097.88
2022-12-18T18:34:22.731Z,102100.50
2022-12-18T18:36:49.395Z,102095.28
2022-12-18T18:39:16.257Z,102090.94
2022-12-18T18:41:48.014Z,102086.59
2022-12-18T18:44:18.780Z,102076.16
2022-12-18T18:46:45.428Z,102090.03
2022-12-18T18:49:13.730Z,102079.66
2022-12-18T18:51:41.145Z,102082.22
2022-12-18T18:54:08.049Z,102073.56
2022-12-18T18:57:11.676Z,102057.03
2022-12-18T18:59:22.448Z,102057.00
2022-12-18T19:01:56.934Z,102058.75
2022-12-18T19:04:23.586Z,102056.16
2022-12-18T19:06:50.096Z,102056.13
2022-12-18T19:09:17.218Z,102063.97
2022-12-18T19:12:02.433Z,102063.06
2022-12-18T19:14:29.415Z,102046.53
2022-12-18T19:16:55.927Z,102043.06
2022-12-18T19:19:23.486Z,102036.97
2022-12-18T19:21:50.255Z,102052.63
2022-12-18T19:24:16.713Z,102036.97
2022-12-18T19:26:43.632Z,102033.47
2022-12-18T19:29:12.055Z,102028.28
2022-12-18T19:31:40.200Z,102015.19
2022-12-18T19:34:07.848Z,102003.06
2022-12-18T19:36:37.654Z,102005.66
2022-12-18T19:39:09.643Z,101996.09
2022-12-18T19:41:36.066Z,101981.31
2022-12-18T19:44:07.958Z,101988.25
2022-12-18T19:46:35.685Z,101991.75
2022-12-18T19:49:02.657Z,101989.97
2022-12-18T19:51:30.372Z,102002.13
2022-12-18T19:53:59.930Z,102004.75
2022-12-18T19:56:34.250Z,101999.50
2022-12-18T19:59:01.770Z,101998.69
2022-12-18T20:01:30.281Z,101996.03
2022-12-18T20:03:58.311Z,101994.28
2022-12-18T20:06:32.834Z,101995.19
2022-12-18T20:09:05.381Z,101983.00
2022-12-18T20:11:33.824Z,101991.69
2022-12-18T20:14:06.525Z,101986.44
2022-12-18T20:16:33.068Z,101989.94
2022-12-18T20:19:00.207Z,101985.59
2022-12-18T20:21:26.772Z,101995.13
2022-12-18T20:23:54.781Z,101989.03
2022-12-18T20:26:22.436Z,101984.66
2022-12-18T20:28:48.867Z,101982.94
2022-12-18T20:31:15.294Z,101985.56
2022-12-18T20:33:42.610Z,101987.28
2022-12-18T20:36:15.341Z,101975.13
2022-12-18T20:38:43.264Z,101965.56
2022-12-18T20:41:16.335Z,101948.19
2022-12-18T20:43:43.313Z,101955.13
2022-12-18T20:46:12.045Z,101953.38
2022-12-18T20:48:38.631Z,101960.31
2022-12-18T20:51:08.135Z,101954.22
2022-12-18T20:53:35.801Z,101960.34
2022-12-18T20:56:08.318Z,101954.22
2022-12-18T20:58:35.560Z,101958.56
2022-12-18T21:01:07.830Z,101959.47
2022-12-18T21:03:36.187Z,101959.44
2022-12-18T21:06:03.463Z,101947.25
2022-12-18T21:08:30.256Z,101953.34
2022-12-18T21:10:56.721Z,101959.47
2022-12-18T21:13:23.660Z,101963.75
2022-12-18T21:15:53.398Z,101952.47
2022-12-18T21:18:20.349Z,101953.31
2022-12-18T21:20:46.911Z,101936.78
2022-12-18T21:23:16.602Z,101950.72
2022-12-18T21:25:44.111Z,101949.84
2022-12-18T21:28:12.079Z,101947.16
2022-12-18T21:30:38.802Z,101947.16
2022-12-18T21:33:05.269Z,101946.25
2022-12-18T21:35:32.131Z,101945.44
2022-12-18T21:37:58.728Z,101939.28
2022-12-18T21:40:25.330Z,101933.19
2022-12-18T21:43:10.217Z,101944.50
2022-12-18T21:45:39.742Z,101953.19
2022-12-18T21:48:06.291Z,101942.75
2022-12-18T21:50:32.713Z,101918.41
2022-12-18T21:52:59.192Z,101915.78
2022-12-18T21:55:25.887Z,101913.19
2022-12-18T21:57:54.484Z,101915.78
2022-12-18T22:00:20.965Z,101928.81
2022-12-18T22:03:01.146Z,101927.09
2022-12-18T22:05:35.156Z,101934.06
2022-12-18T22:08:01.747Z,101926.22
2022-12-18T22:10:28.572Z,101917.53
2022-12-18T22:12:55.208Z,101923.59
2022-12-18T22:15:22.060Z,101910.56
2022-12-18T22:17:50.238Z,101919.22
2022-12-18T22:20:17.629Z,101909.66
2022-12-18T22:22:46.321Z,101916.63
2022-12-18T22:25:12.871Z,101907.06
2022-12-18T22:27:39.330Z,101908.81
2022-12-18T22:30:06.396Z,101899.22
2022-12-18T22:32:35.009Z,101894.00
2022-12-18T22:35:08.390Z,101885.28
2022-12-18T22:37:39.359Z,101890.50
2022-12-18T22:40:07.442Z,101887.84
2022-12-18T22:42:34.946Z,101886.06
2022-12-18T22:45:01.473Z,101879.94
2022-12-18T22:47:30.160Z,101871.28
2022-12-18T22:49:57.728Z,101855.63
2022-12-18T22:52:24.799Z,101858.25
2022-12-18T22:54:51.396Z,101858.25
2022-12-18T22:57:20.108Z,101858.22
2022-12-18T22:59:46.591Z,101853.91
2022-12-18T23:02:13.167Z,101854.75
2022-12-18T23:04:39.768Z,101855.63
2022-12-18T23:07:06.779Z,101851.28
2022-12-18T23:09:33.385Z,101852.94
2022-12-18T23:12:00.227Z,101854.66
2022-12-18T23:14:27.519Z,101846.00
2022-12-18T23:16:53.976Z,101826.84
2022-12-18T23:19:21.406Z,101812.09
2022-12-18T23:21:50.857Z,101809.44
2022-12-18T23:24:17.460Z,101792.91
2022-12-18T23:26:43.899Z,101795.47
2022-12-18T23:29:10.406Z,101780.69
2022-12-18T23:31:38.627Z,101781.56
2022-12-18T23:34:06.792Z,101778.84
2022-12-18T23:36:40.283Z,101771.06
2022-12-18T23:39:15.415Z,101771.09
2022-12-18T23:41:56.026Z,101783.28
2022-12-18T23:44:22.565Z,101778.97
2022-12-18T23:46:49.117Z,101786.75
2022-12-18T23:49:15.655Z,101780.69
2022-12-18T23:51:42.116Z,101761.56
2022-12-18T23:54:09.893Z,101747.63
2022-12-18T23:56:36.386Z,101731.16
2022-12-18T23:59:02.912Z,101735.50
